AirNav   Bose ProFlight Series 2 Headset
 
 797 users online  

5GA2 Lyons Landing Airport
Whitesburg, Georgia, USA

GOING TO WHITESBURG?


FAA INFORMATION EFFECTIVE 30 JANUARY 2020

Location

FAA Identifier: 5GA2
Lat/Long: 33-34-23.3990N 084-54-34.7830W
33-34.389983N 084-54.579717W
33.5731664,-84.9096619
(estimated)
Elevation: 1080 ft. / 329 m (estimated)
Variation: 01W (1985)
From city: 5 miles S of WHITESBURG, GA
Time zone: UTC -5 (UTC -4 during Daylight Saving Time)
Zip code: 30116

Airport Operations

Airport use: Private use. Permission required prior to landing
Activation date: 08/1991
Control tower: no
ARTCC: ATLANTA CENTER
FSS: MACON FLIGHT SERVICE STATION
Attendance: UNATNDD
Wind indicator: yes
Segmented circle: no

Airport Communications

WX AWOS-3 at CTJ (13 nm W): 118.175 (770-214-9667)
WX AWOS-3PT at CCO (17 nm SE): 118.975 (770-254-1617)

Nearby radio navigation aids

VOR radial/distance  VOR name  Freq  Var
ATLr267/24.0ATLANTA VORTAC116.9005W
LGCr024/34.8LAGRANGE VORTAC115.6001E
PDKr244/35.5PEACHTREE VOR/DME116.6005W
RMGr163/36.9ROME VORTAC115.4001E

 
NDB name  Hdg/Dist  Freq  Var  ID
CARROLLTON092/11.127804WGPQ --. .--. --.-
COWETA COUNTY336/21.423403WEQQ . --.- --.-
PECAT313/26.831605WFFC ..-. ..-. -.-.
CARTERSVILLE189/37.730804WEVZ . ...- --..

Airport Services

Runway Information

Runway 9/27

Dimensions: 1800 x 100 ft. / 549 x 30 m
Surface: turf
RUNWAY 9  RUNWAY 27
Traffic pattern: rightleft
Displaced threshold: 600 ft.no
Obstructions: 60 ft. trees, 200 ft. from runwaynone

Airport Ownership and Management from official FAA records

Ownership: Privately-owned
Owner: LYONS LANDING INC
400 CONSOLATION CHURCH ROAD
WHITESBURG, GA 30185
Phone 770-830-0987
Manager: JEFF LYONS
400 CONSOLATION CHURCH ROAD
WHITESBURG, GA 30185
Phone 770-830-0987

Airport Operational Statistics

Aircraft based on the field: 2
Single engine airplanes: 2
    

Additional Remarks

FOR CD CTC ATLANTA APCH AT 678-364-6131.

Instrument Procedures

There are no published instrument procedures at 5GA2.

Some nearby airports with instrument procedures:

KCTJ - West Georgia Regional Airport-O V Gray Field (13 nm W)
KCCO - Newnan Coweta County Airport (17 nm SE)
KPUJ - Paulding Northwest Atlanta Airport (20 nm N)
KFFC - Atlanta Regional Airport-Falcon Field (21 nm SE)
KFTY - Fulton County Airport-Brown Field (23 nm NE)
 
Loc | Ops | Rwys | IFR | FBO | Links
Com | Nav | Svcs | Stats | Notes
Area around 5GA2 (Lyons Landing Airport)
 
Road maps at: MapQuest Bing Google
 
Aerial photo
WARNING: Photo may not be current or correct
Aerial photo of 5GA2 (Lyons Landing Airport)
Do you have a better or more recent aerial photo of Lyons Landing Airport that you would like to share? If so, please send us your photo.

 
Sectional chart

 
Airport distance calculator
Flying to Lyons Landing Airport? Find the distance to fly.

From to 5GA2

Sunrise and sunset
Times for 20-Feb-2020
 Local
(UTC-5)
 Zulu
(UTC)
Morning civil twilight06:5411:54
Sunrise07:2012:20
Sunset18:2723:27
Evening civil twilight18:5323:53

Current date and time
Zulu (UTC)  21-Feb-2020 04:17:06
Local (UTC-5)  20-Feb-2020 23:17:06
 
METAR
KCTJ 
13nm W 
210355Z AUTO 01012KT 10SM OVC013 02/00 A3038 RMK AO2 T00210001
KCCO 
17nm SE 
210355Z AUTO 01007KT 10SM OVC006 05/04 A3034 RMK AO2 T00480040
KPUJ 
20nm N 
210355Z AUTO 34011G15KT 7SM OVC009 02/02 A3034 RMK AO2
KFFC 
22nm SE 
210353Z AUTO 35004KT 10SM OVC020 06/03 A3035 RMK AO2 SLP281 T00560028
KATL 
23nm E 
210352Z 03007KT 7SM FEW007 BKN012 OVC020 04/02 A3033 RMK AO2 RAE14 SLP277 P0000 T00440017
KFTY 
23nm NE 
210353Z 32005KT 10SM OVC015 04/02 A3034 RMK AO2 SLP278 T00390017
TAF
KATL 
23nm E 
210132Z 2102/2206 03011G17KT P6SM VCSH SCT008 BKN012 FM210300 02009KT P6SM VCSH BKN008 OVC012 TEMPO 2106/2109 3SM -RASN FM211100 01008KT P6SM SCT008 BKN012 FM211400 02008KT P6SM SCT025 FM212300 35004KT P6SM FEW250 FM220100 33005KT P6SM SKC
KFTY 
23nm NE 
202134Z 2022/2118 05007KT 5SM -RA BR SCT009 BKN015 FM202300 01011KT 6SM -RA BR OVC007 TEMPO 2106/2108 3SM -RASN BR OVC010 FM210900 01010KT P6SM VCSH BKN030 FM211300 01010KT P6SM SCT150 FM211700 03007KT P6SM SCT250
KMGE 
28nm NE 
202229Z 2022/2204 07009KT 8000 -RA BR BKN005 BKN009 OVC015 620109 QNH3020INS BECMG 2022/2023 05009KT 8000 -RA BR SCT005 BKN010 OVC020 620109 QNH3022INS BECMG 2104/2105 34012G18KT 9999 NSW SCT010 BKN020 OVC040 620208 QNH3032INS BECMG 2112/2113 35009KT 9999 SCT030 QNH3040INS TX09/2121Z TNM02/2112Z
NOTAMs
Click for the latest NOTAMs
NOTAMs are issued by the DoD/FAA and will open in a separate window not controlled by AirNav.

 

 
 

Would you like to see your business listed on this page?

 If your business provides an interesting product or service to pilots, flight crews, aircraft, or users of the Lyons Landing Airport, you should consider listing it here.  To start the listing process, click on the button below
 
Add a business
 

Other Pages about Lyons Landing Airport

www.lyonslanding.com
 
Update a link
 
Copyright © AirNav, LLC. All rights reserved. Privacy Policy  Contact